Bost/Laskar, Afghanistan
Current Conditions -  °F | °C
As of 8:50 PM on Thursday 23 Oct 2014 (Local Time) from EQBH Reporting Station
Clear Clear  
Wind Chill: 70°   Ceiling: Unl
Heat Index: 70°   Visibility: 6mi
Dew Point: 23°   Wind: 9mph
Humidity: 17%   Direction: 250°WSW
Pressure: 30.06"   Gusts: NA
Location:  31.55°N, 64.37°E
Report Text: EQBH 231650Z 25008KT 9999 SKC 21/M05 Q1018 BLU NOSIG
Loading
Personal Weather Stations






























Interactive Weather Map
Tropical Storm Tracking
New forecast layout! Learn more

10-Day Weather Forecast

Advertisements
Track Severe Weather on mobile